Kezdőlap
METAR-TAF:

METAR-TAF

Repülőterek :

Mendoza, Argentína

földrajzi szélesség: 32-50S, földrajzi hosszúság: 068-47W, magasság: 705 m

Jelenlegi meteorológiai megfigyelések

A jelentés 1 órával és 3 perccel ezelõtt készült, 19:00 UTC
Keleti szél 9 kt
Hőmérséklet 20°C
Páratartalom 37%
Légköri nyomás 1016 hPa
Látótávolság 10 km, vagy több
Borult 4000 lábon

METAR: SAME 231900Z 09009KT 9999 OVC040 20/05 Q1016

Idő: 17:03 (20:03 UTC)

Előrejelzés

A jelentés 3 órával és 3 perccel ezelõtt készült, 17:00 UTC
Az előrejelzés 23-én 18 óra UTC és 24-én 18 óra UTC között érvényes
Délkeleti szél 5 kt
Látótávolság 10 km, vagy több
Szórványos felhőzet 3000 lábon
Borult 4000 lábon

TAF: SAME 231700Z 2318/2418 14005KT 9999 SCT030 OVC040 TX23/2320Z TN11/2410Z

Meteorológiai megfigyelések és előrejelzések több, mint 4000 repülőtéren (METAR és TAF jelentéseket).

A térképen piros és sárga pontok jelzik az elérhető meteorológiai állomásokat.

Mozgassa az egeret a pont fölött, hogy megjelenjen az állomás neve.

Azután kattintson az időjárási megfigyelések és előrejelzések megtekintéséhez.

A térkép megváltoztatása: kattintson a fekete keresztel jelölt zöld gombra ráközelítéshez, a vonallal jelölt zöld gombra távolításhoz, vagy a zöld nyilakra a szomszédos térképek eléréséhez.


METAR-TAF: